Terminal Aerodrome Forecast
Issued by NWS

Home | Current Version | Previous Version | Text Only | Print | Product List | Glossary Off
Versions: 1 2 3 4 5 6 7 8 9 10 11 12 13 14 15 16 17 18 19

000
FTUS43 KBIS 062320
TAFJMS
TAF
KJMS 062320Z 0700/0724 35012KT 6SM HZ SCT040 BKN080
     FM070200 VRB05KT 3SM FU SCT050
     FM071500 19009KT 6SM FU SCT050=

USA.gov is the U.S. government's official web portal to all federal, state and local government web resources and services.